KPGD/PGD METAR and TAF weather

Enter ICAO airport designator
Station Type Date Time Source
KPGD METAR 2019/02/21 14:53 UTC NOAA

KPGD 211453Z 15011KT 10SM FEW016 SCT024 BKN034 26/21 A3016 RMK AO2 SLP213 T02560211 53017


Station Type Date Time Source
KPGD Decoded METAR 2019/02/21 14:53 UTC NOAA

PUNTA GORDA CHARLOTTE COUNTY, FL, United States (KPGD) 26-55N 82-00W 7M
Feb 21, 2019 - 09:53 AM EST / 2019.02.21 1453 UTC
Wind: from the SSE (150 degrees) at 13 MPH (11 KT):0
Visibility: 10 mile(s):0
Sky conditions: mostly cloudy
Temperature: 78.1 F (25.6 C)
Dew Point: 70.0 F (21.1 C)
Relative Humidity: 76%
Pressure (altimeter): 30.16 in. Hg (1021 hPa)
Pressure tendency: 0.05 inches (1.7 hPa) higher than three hours ago
ob: KPGD 211453Z 15011KT 10SM FEW016 SCT024 BKN034 26/21 A3016 RMK AO2 SLP213 T02560211 53017
cycle: 15

Station Type Date Time Source
KPGD TAF 2019/02/21 12:36 UTC NOAA

TAF KPGD 211134Z 2112/2212 13005KT P6SM SCT025
TEMPO 2112/2114 5SM BR BKN025
FM211400 16010KT P6SM BKN035
FM211900 19012KT P6SM SCT050
FM220000 15004KT P6SM BKN050
FM220900 VRB03KT 6SM BR SCT010


Example: see airport list